SondeTracker

Meteorological Radiosondes Database

Operations

Sounding was ended - last measurement: 2022-12-06 14:15:09z

MAP
About Radiosonde

Number: D22037080 (22037080)

Launch Site: Davenport [IA] (US)

Type: DFM17

AUX: NO

Frequency: 403.410 MHz

Max Speed: 257 km/h at 12732 m

Average Speed: 134.87 km/h

Max Altitude: 32765 m

Average Ascent Speed: 5.06 m/s

Average Descent Speed: 6.37 m/s

Status: UNKNOWN

Status Changes
Launch Site Type AUX Frequency Status Finder Landing Point Description Changes made by
APRS Statistics

Received Frames: 340

First Frame [UTC]: 2022-12-06 11:42:45z

Last Frame [UTC]: 2022-12-06 14:15:09z

Receivers: KD9IXX, KD9PII

Flight Time: 02:32:24 h

Distance From First Measurement: 347.91 km

Nearest City: Portage [MI] (US) [20.82 km]

Nearest Hunter: [0.00 km]

Ground Altitude: 274 m

Distance from QTH: 0.00 km

APRS Data
Receiver Number Date/Time [UTC] φ λ Course [°] Speed [km/h] Altitude [m] Description
KD9IXXD220370802022-12-06 14:15:0942.0913-85.796395813308Clb=-3.4m/s t=-4.9C h=-1.0% p=-1.0hPa 403.410 MHz Type=DFM17 ser=22037080 Radiosonde
KD9IXXD220370802022-12-06 14:14:3842.0919-85.803398983399Clb=-3.6m/s t=-5.7C h=-1.0% p=-1.0hPa 403.410 MHz Type=DFM17 ser=22037080 Radiosonde
KD9IXXD220370802022-12-06 14:14:0742.0929-85.8295893639Clb=-4.3m/s t=-8.1C h=-1.0% p=-1.0hPa 403.410 MHz Type=DFM17 ser=22037080 Radiosonde
KD9IXXD220370802022-12-06 14:13:3642.0929-85.823387933688Clb=-4.7m/s t=-8.6C h=-1.0% p=-1.0hPa 403.410 MHz Type=DFM17 ser=22037080 Radiosonde
KD9IXXD220370802022-12-06 14:13:0442.0932-85.829493983779Clb=-4.7m/s t=-9.5C h=-1.0% p=-1.0hPa 403.410 MHz Type=DFM17 ser=22037080 Radiosonde
KD9IXXD220370802022-12-06 14:12:3342.094-85.839795913928Clb=-4.2m/s t=-10.9C h=-1.0% p=-1.0hPa 403.410 MHz Type=DFM17 ser=22037080 Radiosonde
KD9IXXD220370802022-12-06 14:12:0242.0948-85.848895874032Clb=-3.7m/s t=-11.9C h=-1.0% p=-1.0hPa 403.410 MHz Type=DFM17 ser=22037080 Radiosonde
KD9IXXD220370802022-12-06 14:11:3142.0953-85.858692914150Clb=-4.8m/s t=-12.8C h=-1.0% p=-1.0hPa 403.410 MHz Type=DFM17 ser=22037080 Radiosonde
KD9IXXD220370802022-12-06 14:11:0042.0954-85.868294944314Clb=-5.3m/s t=-14.3C h=-1.0% p=-1.0hPa 403.410 MHz Type=DFM17 ser=22037080 Radiosonde
KD9IXXD220370802022-12-06 14:10:2942.0955-85.877589804468Clb=-4.5m/s t=-15.6C h=-1.0% p=-1.0hPa 403.410 MHz Type=DFM17 ser=22037080 Radiosonde
KD9IXXD220370802022-12-06 14:09:5842.0953-85.887192944595Clb=-3.7m/s t=-16.3C h=-1.0% p=-1.0hPa 403.410 MHz Type=DFM17 ser=22037080 Radiosonde
KD9IXXD220370802022-12-06 14:09:2742.0949-85.896481934713Clb=-3.5m/s t=-17.1C h=-1.0% p=-1.0hPa 403.410 MHz Type=DFM17 ser=22037080 Radiosonde
KD9IXXD220370802022-12-06 14:08:5642.0942-85.905489894818Clb=-3.6m/s t=-17.7C h=-1.0% p=-1.0hPa 403.410 MHz Type=DFM17 ser=22037080 Radiosonde
KD9IXXD220370802022-12-06 14:08:2542.0929-85.914880914931Clb=-3.2m/s t=-18.0C h=-1.0% p=-1.0hPa 403.410 MHz Type=DFM17 ser=22037080 Radiosonde
KD9IXXD220370802022-12-06 14:07:5442.0908-85.923765875020Clb=-2.2m/s t=-17.9C h=-1.0% p=-1.0hPa 403.410 MHz Type=DFM17 ser=22037080 Radiosonde
KD9IXXD220370802022-12-06 14:07:2342.088-85.932459835101Clb=-2.7m/s t=-18.3C h=-1.0% p=-1.0hPa 403.410 MHz Type=DFM17 ser=22037080 Radiosonde
KD9IXXD220370802022-12-06 14:06:5242.0851-85.940362945177Clb=-2.2m/s t=-18.8C h=-1.0% p=-1.0hPa 403.410 MHz Type=DFM17 ser=22037080 Radiosonde
KD9IXXD220370802022-12-06 14:06:2142.0822-85.948664805256Clb=-2.3m/s t=-19.5C h=-1.0% p=-1.0hPa 403.410 MHz Type=DFM17 ser=22037080 Radiosonde
KD9IXXD220370802022-12-06 14:05:5042.0794-85.956765935338Clb=-2.5m/s t=-20.1C h=-1.0% p=-1.0hPa 403.410 MHz Type=DFM17 ser=22037080 Radiosonde
KD9IXXD220370802022-12-06 14:05:1942.0768-85.965574875433Clb=-3.4m/s t=-20.7C h=-1.0% p=-1.0hPa 403.410 MHz Type=DFM17 ser=22037080 Radiosonde
KD9IXXD220370802022-12-06 14:04:4742.0741-85.974473815543Clb=-3.6m/s t=-21.5C h=-1.0% p=-1.0hPa 403.410 MHz Type=DFM17 ser=22037080 Radiosonde
KD9IXXD220370802022-12-06 14:04:1742.0716-85.98360835648Clb=-3.5m/s t=-22.3C h=-1.0% p=-1.0hPa 403.410 MHz Type=DFM17 ser=22037080 Radiosonde
KD9IXXD220370802022-12-06 14:03:4542.069-85.991568895751Clb=-2.9m/s t=-23.0C h=-1.0% p=-1.0hPa 403.410 MHz Type=DFM17 ser=22037080 Radiosonde
KD9IXXD220370802022-12-06 14:03:1442.0667-86.0006701045852Clb=-3.7m/s t=-23.0C h=-1.0% p=-1.0hPa 403.410 MHz Type=DFM17 ser=22037080 Radiosonde
KD9IXXD220370802022-12-06 14:02:4342.0647-86.0115761065970Clb=-3.4m/s t=-24.0C h=-1.0% p=-1.0hPa 403.410 MHz Type=DFM17 ser=22037080 Radiosonde
KD9IXXD220370802022-12-06 14:02:1242.0625-86.022691156077Clb=-2.7m/s t=-24.9C h=-1.0% p=-1.0hPa 403.410 MHz Type=DFM17 ser=22037080 Radiosonde
KD9IXXD220370802022-12-06 14:01:4142.0607-86.0336721196165Clb=-2.4m/s t=-25.7C h=-1.0% p=-1.0hPa 403.410 MHz Type=DFM17 ser=22037080 Radiosonde
KD9IXXD220370802022-12-06 14:01:1042.0588-86.0458841356238Clb=-3.6m/s t=-26.3C h=-1.0% p=-1.0hPa 403.410 MHz Type=DFM17 ser=22037080 Radiosonde
KD9IXXD220370802022-12-06 14:00:3942.0564-86.0602731526338Clb=-2.8m/s t=-26.2C h=-1.0% p=-1.0hPa 403.410 MHz Type=DFM17 ser=22037080 Radiosonde
KD9IXXD220370802022-12-06 14:00:1642.0539-86.0737831416418Clb=-2.7m/s t=-26.3C h=-1.0% p=-1.0hPa 403.410 MHz Type=DFM17 ser=22037080 Radiosonde
KD9IXXD220370802022-12-06 13:59:3742.0513-86.0875701286501Clb=-2.8m/s t=-26.8C h=-1.0% p=-1.0hPa 403.410 MHz Type=DFM17 ser=22037080 Radiosonde
KD9IXXD220370802022-12-06 13:59:0642.0483-86.1021781596585Clb=-2.6m/s t=-27.5C h=-1.0% p=-1.0hPa 403.410 MHz Type=DFM17 ser=22037080 Radiosonde
KD9IXXD220370802022-12-06 13:58:3542.0454-86.1165681336648Clb=-1.7m/s t=-28.0C h=-1.0% p=-1.0hPa 403.410 MHz Type=DFM17 ser=22037080 Radiosonde
KD9IXXD220370802022-12-06 13:58:0442.0421-86.1309791396714Clb=-2.1m/s t=-28.4C h=-1.0% p=-1.0hPa 403.410 MHz Type=DFM17 ser=22037080 Radiosonde
KD9IXXD220370802022-12-06 13:57:3342.0386-86.1453751566785Clb=-2.4m/s t=-29.0C h=-1.0% p=-1.0hPa 403.410 MHz Type=DFM17 ser=22037080 Radiosonde
KD9IXXD220370802022-12-06 13:57:0242.0352-86.1594651416858Clb=-2.5m/s t=-29.5C h=-1.0% p=-1.0hPa 403.410 MHz Type=DFM17 ser=22037080 Radiosonde
KD9IXXD220370802022-12-06 13:56:3042.0319-86.1737771306935Clb=-2.4m/s t=-30.1C h=-1.0% p=-1.0hPa 403.410 MHz Type=DFM17 ser=22037080 Radiosonde
KD9IXXD220370802022-12-06 13:55:5942.0284-86.188751617010Clb=-2.5m/s t=-30.7C h=-1.0% p=-1.0hPa 403.410 MHz Type=DFM17 ser=22037080 Radiosonde
KD9IXXD220370802022-12-06 13:55:2842.0247-86.203711677089Clb=-2.2m/s t=-31.2C h=-1.0% p=-1.0hPa 403.410 MHz Type=DFM17 ser=22037080 Radiosonde
KD9IXXD220370802022-12-06 13:54:5742.0213-86.2172701307160Clb=-2.6m/s t=-31.5C h=-1.0% p=-1.0hPa 403.410 MHz Type=DFM17 ser=22037080 Radiosonde
KD9IXXD220370802022-12-06 13:54:2642.0179-86.2319801447234Clb=-2.3m/s t=-31.8C h=-1.0% p=-1.0hPa 403.410 MHz Type=DFM17 ser=22037080 Radiosonde
KD9IXXD220370802022-12-06 13:53:5542.0144-86.2465731677309Clb=-2.7m/s t=-32.3C h=-1.0% p=-1.0hPa 403.410 MHz Type=DFM17 ser=22037080 Radiosonde
KD9IXXD220370802022-12-06 13:53:2442.0106-86.261651527387Clb=-2.5m/s t=-32.7C h=-1.0% p=-1.0hPa 403.410 MHz Type=DFM17 ser=22037080 Radiosonde
KD9IXXD220370802022-12-06 13:52:5342.007-86.2758661507488Clb=-3.1m/s t=-33.6C h=-1.0% p=-1.0hPa 403.410 MHz Type=DFM17 ser=22037080 Radiosonde
KD9IXXD220370802022-12-06 13:52:2242.0037-86.29781337573Clb=-2.9m/s t=-34.4C h=-1.0% p=-1.0hPa 403.410 MHz Type=DFM17 ser=22037080 Radiosonde
KD9IXXD220370802022-12-06 13:51:5142.0004-86.3046801507660Clb=-2.5m/s t=-35.1C h=-1.0% p=-1.0hPa 403.410 MHz Type=DFM17 ser=22037080 Radiosonde
KD9IXXD220370802022-12-06 13:51:2041.9972-86.3198811487742Clb=-2.6m/s t=-35.8C h=-1.0% p=-1.0hPa 403.410 MHz Type=DFM17 ser=22037080 Radiosonde
KD9IXXD220370802022-12-06 13:50:4941.9942-86.334701677820Clb=-3.0m/s t=-36.5C h=-1.0% p=-1.0hPa 403.410 MHz Type=DFM17 ser=22037080 Radiosonde
KD9IXXD220370802022-12-06 13:50:1841.9912-86.3496721657909Clb=-2.4m/s t=-37.3C h=-1.0% p=-1.0hPa 403.410 MHz Type=DFM17 ser=22037080 Radiosonde
KD9IXXD220370802022-12-06 13:49:4741.9883-86.3648691597979Clb=-2.5m/s t=-38.0C h=-1.0% p=-1.0hPa 403.410 MHz Type=DFM17 ser=22037080 Radiosonde
KD9IXXD220370802022-12-06 13:49:1641.9852-86.3818821638060Clb=-2.5m/s t=-38.6C h=-1.0% p=-1.0hPa 403.410 MHz Type=DFM17 ser=22037080 Radiosonde
KD9IXXD220370802022-12-06 13:48:4541.9826-86.3968721678136Clb=-2.5m/s t=-39.2C h=-1.0% p=-1.0hPa 403.410 MHz Type=DFM17 ser=22037080 Radiosonde
KD9IXXD220370802022-12-06 13:48:1341.9801-86.412831508204Clb=-2.4m/s t=-39.4C h=-1.0% p=-1.0hPa 403.410 MHz Type=DFM17 ser=22037080 Radiosonde
KD9IXXD220370802022-12-06 13:47:4241.9771-86.4282811678279Clb=-2.5m/s t=-39.8C h=-1.0% p=-1.0hPa 403.410 MHz Type=DFM17 ser=22037080 Radiosonde
KD9IXXD220370802022-12-06 13:47:1141.9737-86.4443761808359Clb=-2.6m/s t=-40.2C h=-1.0% p=-1.0hPa 403.410 MHz Type=DFM17 ser=22037080 Radiosonde
KD9IXXD220370802022-12-06 13:46:4041.9698-86.4614781788448Clb=-2.7m/s t=-40.6C h=-1.0% p=-1.0hPa 403.410 MHz Type=DFM17 ser=22037080 Radiosonde
KD9IXXD220370802022-12-06 13:46:0941.966-86.4776671838532Clb=-2.9m/s t=-41.3C h=-1.0% p=-1.0hPa 403.410 MHz Type=DFM17 ser=22037080 Radiosonde
KD9IXXD220370802022-12-06 13:45:3841.9622-86.4946671748619Clb=-2.5m/s t=-41.8C h=-1.0% p=-1.0hPa 403.410 MHz Type=DFM17 ser=22037080 Radiosonde
KD9IXXD220370802022-12-06 13:45:0741.9585-86.512691638702Clb=-2.6m/s t=-42.4C h=-1.0% p=-1.0hPa 403.410 MHz Type=DFM17 ser=22037080 Radiosonde
KD9IXXD220370802022-12-06 13:44:3741.9551-86.5299721598786Clb=-2.7m/s t=-42.9C h=-1.0% p=-1.0hPa 403.410 MHz Type=DFM17 ser=22037080 Radiosonde
KD9IXXD220370802022-12-06 13:44:0541.9518-86.5489721728874Clb=-2.7m/s t=-43.4C h=-1.0% p=-1.0hPa 403.410 MHz Type=DFM17 ser=22037080 Radiosonde
KD9IXXD220370802022-12-06 13:43:3441.949-86.5674851818951Clb=-2.8m/s t=-43.9C h=-1.0% p=-1.0hPa 403.410 MHz Type=DFM17 ser=22037080 Radiosonde
KD9IXXD220370802022-12-06 13:43:0341.9464-86.587852099042Clb=-3.3m/s t=-44.4C h=-1.0% p=-1.0hPa 403.410 MHz Type=DFM17 ser=22037080 Radiosonde
KD9IXXD220370802022-12-06 13:42:3241.9439-86.6075842229128Clb=-2.2m/s t=-45.0C h=-1.0% p=-1.0hPa 403.410 MHz Type=DFM17 ser=22037080 Radiosonde
KD9IXXD220370802022-12-06 13:42:0141.9415-86.6285822289207Clb=-2.4m/s t=-45.6C h=-1.0% p=-1.0hPa 403.410 MHz Type=DFM17 ser=22037080 Radiosonde
KD9IXXD220370802022-12-06 13:41:3041.9391-86.6506872179292Clb=-2.7m/s t=-46.1C h=-1.0% p=-1.0hPa 403.410 MHz Type=DFM17 ser=22037080 Radiosonde
KD9IXXD220370802022-12-06 13:40:5941.9368-86.6714802329377Clb=-2.6m/s t=-46.7C h=-1.0% p=-1.0hPa 403.410 MHz Type=DFM17 ser=22037080 Radiosonde
KD9IXXD220370802022-12-06 13:40:2841.9344-86.694852289467Clb=-2.8m/s t=-47.5C h=-1.0% p=-1.0hPa 403.410 MHz Type=DFM17 ser=22037080 Radiosonde
KD9IXXD220370802022-12-06 13:39:5741.9322-86.7151792359553Clb=-2.7m/s t=-48.1C h=-1.0% p=-1.0hPa 403.410 MHz Type=DFM17 ser=22037080 Radiosonde
KD9IXXD220370802022-12-06 13:39:2541.9297-86.7389882159648Clb=-2.9m/s t=-48.9C h=-1.0% p=-1.0hPa 403.410 MHz Type=DFM17 ser=22037080 Radiosonde
KD9IXXD220370802022-12-06 13:38:5441.9274-86.7606842399734Clb=-2.9m/s t=-49.4C h=-1.0% p=-1.0hPa 403.410 MHz Type=DFM17 ser=22037080 Radiosonde
KD9IXXD220370802022-12-06 13:38:2341.9249-86.7829842379826Clb=-3.2m/s t=-50.0C h=-1.0% p=-1.0hPa 403.410 MHz Type=DFM17 ser=22037080 Radiosonde
KD9IXXD220370802022-12-06 13:37:5241.9227-86.8057852449918Clb=-2.9m/s t=-50.7C h=-1.0% p=-1.0hPa 403.410 MHz Type=DFM17 ser=22037080 Radiosonde
KD9IXXD220370802022-12-06 13:37:2141.9208-86.82918624810016Clb=-3.0m/s t=-51.1C h=-1.0% p=-1.0hPa 403.410 MHz Type=DFM17 ser=22037080 Radiosonde
KD9IXXD220370802022-12-06 13:36:5041.9191-86.85379023010121Clb=-3.3m/s t=-51.7C h=-1.0% p=-1.0hPa 403.410 MHz Type=DFM17 ser=22037080 Radiosonde
KD9IXXD220370802022-12-06 13:36:1941.9171-86.8778625610222Clb=-3.4m/s t=-51.7C h=-1.0% p=-1.0hPa 403.410 MHz Type=DFM17 ser=22037080 Radiosonde
KD9IXXD220370802022-12-06 13:35:4841.9148-86.90168725210324Clb=-3.5m/s t=-52.0C h=-1.0% p=-1.0hPa 403.410 MHz Type=DFM17 ser=22037080 Radiosonde
KD9IXXD220370802022-12-06 13:35:1741.9128-86.92618924410428Clb=-3.6m/s t=-52.2C h=-1.0% p=-1.0hPa 403.410 MHz Type=DFM17 ser=22037080 Radiosonde
KD9IXXD220370802022-12-06 13:34:4641.9109-86.95039024110531Clb=-3.5m/s t=-52.8C h=-1.0% p=-1.0hPa 403.410 MHz Type=DFM17 ser=22037080 Radiosonde
KD9IXXD220370802022-12-06 13:34:1541.9093-86.97548620910639Clb=-3.1m/s t=-53.5C h=-1.0% p=-1.0hPa 403.410 MHz Type=DFM17 ser=22037080 Radiosonde
KD9IXXD220370802022-12-06 13:33:4441.9079-86.9999022010742Clb=-3.2m/s t=-54.2C h=-1.0% p=-1.0hPa 403.410 MHz Type=DFM17 ser=22037080 Radiosonde
KD9IXXD220370802022-12-06 13:33:1341.9069-87.02358721110849Clb=-3.1m/s t=-55.0C h=-1.0% p=-1.0hPa 403.410 MHz Type=DFM17 ser=22037080 Radiosonde
KD9IXXD220370802022-12-06 13:32:4241.9055-87.0488121510959Clb=-3.5m/s t=-55.4C h=-1.0% p=-1.0hPa 403.410 MHz Type=DFM17 ser=22037080 Radiosonde
KD9IXXD220370802022-12-06 13:32:1141.9039-87.07217822611071Clb=-3.8m/s t=-56.2C h=-1.0% p=-1.0hPa 403.410 MHz Type=DFM17 ser=22037080 Radiosonde
KD9IXXD220370802022-12-06 13:31:4041.9023-87.09658625211186Clb=-3.6m/s t=-56.8C h=-1.0% p=-1.0hPa 403.410 MHz Type=DFM17 ser=22037080 Radiosonde
KD9IXXD220370802022-12-06 13:31:0841.9009-87.11958525711294Clb=-3.7m/s t=-57.3C h=-1.0% p=-1.0hPa 403.410 MHz Type=DFM17 ser=22037080 Radiosonde
KD9IXXD220370802022-12-06 13:30:3741.8998-87.14449222211410Clb=-3.3m/s t=-58.1C h=-1.0% p=-1.0hPa 403.410 MHz Type=DFM17 ser=22037080 Radiosonde
KD9IXXD220370802022-12-06 13:30:1041.8989-87.16788719611520Clb=-3.7m/s t=-58.3C h=-1.0% p=-1.0hPa 403.410 MHz Type=DFM17 ser=22037080 Radiosonde
KD9PIID220370802022-12-06 13:29:4541.898-87.18768123711614Clb=-3.5m/s t=-58.2C p=-1.0hPa h=-1.0% 403.409 MHz Type=DFM17 ser=22037080 Radiosonde
KD9IXXD220370802022-12-06 13:29:3541.8978-87.19138023911631Clb=-3.7m/s t=-58.3C h=-1.0% p=-1.0hPa 403.410 MHz Type=DFM17 ser=22037080 Radiosonde
KD9PIID220370802022-12-06 13:29:1441.8969-87.2068023711703Clb=-3.6m/s t=-58.5C p=-1.0hPa h=-1.0% 403.409 MHz Type=DFM17 ser=22037080 Radiosonde
KD9IXXD220370802022-12-06 13:29:0441.8964-87.21337923911739Clb=-3.5m/s t=-58.5C h=-1.0% p=-1.0hPa 403.410 MHz Type=DFM17 ser=22037080 Radiosonde
KD9PIID220370802022-12-06 13:28:4241.8949-87.23268524311834Clb=-3.3m/s t=-58.1C p=-1.0hPa h=-1.0% 403.409 MHz Type=DFM17 ser=22037080 Radiosonde
KD9IXXD220370802022-12-06 13:28:3341.8946-87.23628524111853Clb=-3.4m/s t=-58.1C h=-1.0% p=-1.0hPa 403.410 MHz Type=DFM17 ser=22037080 Radiosonde
KD9IXXD220370802022-12-06 13:28:0241.8926-87.2588920911969Clb=-3.9m/s t=-58.2C h=-1.0% p=-1.0hPa 403.410 MHz Type=DFM17 ser=22037080 Radiosonde
KD9IXXD220370802022-12-06 13:27:3241.8906-87.28058119412093Clb=-4.4m/s t=-58.5C h=-1.0% p=-1.0hPa 403.410 MHz Type=DFM17 ser=22037080 Radiosonde
KD9PIID220370802022-12-06 13:27:1041.8887-87.29957421712201Clb=-4.3m/s t=-58.7C p=-1.0hPa h=-1.0% 403.409 MHz Type=DFM17 ser=22037080 Radiosonde
KD9IXXD220370802022-12-06 13:27:0041.8882-87.30388024312225Clb=-4.1m/s t=-58.6C h=-1.0% p=-1.0hPa 403.410 MHz Type=DFM17 ser=22037080 Radiosonde
KD9PIID220370802022-12-06 13:26:3841.8867-87.3217521912328Clb=-4.2m/s t=-58.6C p=-1.0hPa h=-1.0% 403.409 MHz Type=DFM17 ser=22037080 Radiosonde
KD9IXXD220370802022-12-06 13:26:2941.8862-87.32528123312354Clb=-4.8m/s t=-58.3C h=-1.0% p=-1.0hPa 403.410 MHz Type=DFM17 ser=22037080 Radiosonde
KD9PIID220370802022-12-06 13:26:0741.8843-87.34177723212462Clb=-4.6m/s t=-57.9C p=-1.0hPa h=-1.0% 403.409 MHz Type=DFM17 ser=22037080 Radiosonde
KD9IXXD220370802022-12-06 13:25:5841.8838-87.34678920412493Clb=-4.8m/s t=-57.8C h=-1.0% p=-1.0hPa 403.410 MHz Type=DFM17 ser=22037080 Radiosonde
KD9PIID220370802022-12-06 13:25:4041.8822-87.3638224612597Clb=-4.7m/s t=-58.0C p=-1.0hPa h=-1.0% 403.409 MHz Type=DFM17 ser=22037080 Radiosonde
KD9IXXD220370802022-12-06 13:25:2941.8818-87.36967822412638Clb=-4.5m/s t=-58.0C h=-1.0% p=-1.0hPa 403.410 MHz Type=DFM17 ser=22037080 Radiosonde
KD9PIID220370802022-12-06 13:25:0541.8811-87.38558725712732Clb=-4.4m/s t=-57.8C p=-1.0hPa h=-1.0% 403.409 MHz Type=DFM17 ser=22037080 Radiosonde
KD9IXXD220370802022-12-06 13:24:5641.8811-87.39248224312773Clb=-4.5m/s t=-57.9C h=-1.0% p=-1.0hPa 403.410 MHz Type=DFM17 ser=22037080 Radiosonde
KD9PIID220370802022-12-06 13:24:3641.8812-87.40949922212870Clb=-4.5m/s t=-57.4C p=-1.0hPa h=-1.0% 403.409 MHz Type=DFM17 ser=22037080 Radiosonde
KD9IXXD220370802022-12-06 13:24:2541.8814-87.41759118912918Clb=-4.7m/s t=-57.6C h=-1.0% p=-1.0hPa 403.410 MHz Type=DFM17 ser=22037080 Radiosonde
KD9PIID220370802022-12-06 13:24:0541.8817-87.43198818513005Clb=-4.4m/s t=-58.2C p=-1.0hPa h=-1.0% 403.410 MHz Type=DFM17 ser=22037080 Radiosonde
KD9IXXD220370802022-12-06 13:23:5441.8818-87.43839718713045Clb=-4.2m/s t=-58.5C h=-1.0% p=-1.0hPa 403.410 MHz Type=DFM17 ser=22037080 Radiosonde
KD9PIID220370802022-12-06 13:23:1441.8501-87.90869017017725Clb=-7.4m/s t=-60.8C p=-1.0hPa h=-1.0% 403.410 MHz Type=DFM17 ser=22037080 Radiosonde
KD9IXXD220370802022-12-06 13:23:0141.8502-87.9127815017786Clb=-7.4m/s t=-61.0C h=-1.0% p=-1.0hPa 403.410 MHz Type=DFM17 ser=22037080 Radiosonde
KD9PIID220370802022-12-06 13:22:3341.8507-87.92118314417955Clb=-7.3m/s t=-61.4C p=-1.0hPa h=-1.0% 403.410 MHz Type=DFM17 ser=22037080 Radiosonde
KD9IXXD220370802022-12-06 13:22:1941.8509-87.92468915218026Clb=-7.7m/s t=-61.9C h=-1.0% p=-1.0hPa 403.410 MHz Type=DFM17 ser=22037080 Radiosonde
KD9PIID220370802022-12-06 13:21:5341.8513-87.93289613918196Clb=-7.9m/s t=-61.4C p=-1.0hPa h=-1.0% 403.410 MHz Type=DFM17 ser=22037080 Radiosonde
KD9IXXD220370802022-12-06 13:21:4241.8514-87.9361146918274Clb=-7.1m/s t=-60.9C h=-1.0% p=-1.0hPa 403.410 MHz Type=DFM17 ser=22037080 Radiosonde
KD9PIID220370802022-12-06 13:21:1641.851-87.94141088318436Clb=-8.1m/s t=-60.4C p=-1.0hPa h=-1.0% 403.410 MHz Type=DFM17 ser=22037080 Radiosonde
KD9IXXD220370802022-12-06 13:21:0441.8506-87.94371045618505Clb=-7.9m/s t=-60.7C h=-1.0% p=-1.0hPa 403.410 MHz Type=DFM17 ser=22037080 Radiosonde
KD9PIID220370802022-12-06 13:20:3741.849-87.9493429818682Clb=-7.8m/s t=-14.6C p=-1.0hPa h=-1.0% 403.410 MHz Type=DFM17 ser=22037080 Radiosonde
KD9IXXD220370802022-12-06 13:20:2441.8482-87.95155411918752Clb=-7.4m/s t=-62.4C h=-1.0% p=-1.0hPa 403.410 MHz Type=DFM17 ser=22037080 Radiosonde
KD9PIID220370802022-12-06 13:19:4941.846-87.95757113018925Clb=-7.7m/s t=-63.6C p=-1.0hPa h=-1.0% 403.410 MHz Type=DFM17 ser=22037080 Radiosonde
KD9IXXD220370802022-12-06 13:19:3741.8452-87.95976013518988Clb=-7.7m/s t=-63.9C h=-1.0% p=-1.0hPa 403.410 MHz Type=DFM17 ser=22037080 Radiosonde
KD9PIID220370802022-12-06 13:19:0741.8434-87.96668912419166Clb=-8.1m/s t=-62.8C p=-1.0hPa h=-1.0% 403.410 MHz Type=DFM17 ser=22037080 Radiosonde
KD9IXXD220370802022-12-06 13:18:5441.843-87.9695508019256Clb=-7.9m/s t=-62.8C h=-1.0% p=-1.0hPa 403.410 MHz Type=DFM17 ser=22037080 Radiosonde
KD9PIID220370802022-12-06 13:18:2741.8422-87.9747457619430Clb=-8.2m/s t=-63.9C p=-1.0hPa h=-1.0% 403.410 MHz Type=DFM17 ser=22037080 Radiosonde
KD9IXXD220370802022-12-06 13:18:1641.8418-87.97686010219506Clb=-8.4m/s t=-63.8C h=-1.0% p=-1.0hPa 403.410 MHz Type=DFM17 ser=22037080 Radiosonde
KD9PIID220370802022-12-06 13:17:4641.841-87.98176910619682Clb=-8.3m/s t=-64.0C p=-1.0hPa h=-1.0% 403.410 MHz Type=DFM17 ser=22037080 Radiosonde
KD9IXXD220370802022-12-06 13:17:3241.841-87.98411247419766Clb=-8.0m/s t=-63.4C h=-1.0% p=-1.0hPa 403.410 MHz Type=DFM17 ser=22037080 Radiosonde
KD9PIID220370802022-12-06 13:17:0041.8414-87.9891296319943Clb=-8.4m/s t=-62.9C p=-1.0hPa h=-1.0% 403.410 MHz Type=DFM17 ser=22037080 Radiosonde
KD9IXXD220370802022-12-06 13:16:4841.8414-87.9912608520029Clb=-8.9m/s t=-63.3C h=-1.0% p=-1.0hPa 403.410 MHz Type=DFM17 ser=22037080 Radiosonde
KD9PIID220370802022-12-06 13:16:2141.8413-87.996410310420225Clb=-9.2m/s t=-61.9C p=-1.0hPa h=-1.0% 403.410 MHz Type=DFM17 ser=22037080 Radiosonde
KD9IXXD220370802022-12-06 13:16:1141.8411-87.99861136120306Clb=-9.0m/s t=-61.3C h=-1.0% p=-1.0hPa 403.410 MHz Type=DFM17 ser=22037080 Radiosonde
KD9PIID220370802022-12-06 13:15:4241.8403-88.0038713020495Clb=-8.7m/s t=-62.2C p=-1.0hPa h=-1.0% 403.410 MHz Type=DFM17 ser=22037080 Radiosonde
KD9IXXD220370802022-12-06 13:15:2941.8397-88.00651038920593Clb=-9.2m/s t=-63.1C h=-1.0% p=-1.0hPa 403.410 MHz Type=DFM17 ser=22037080 Radiosonde
KD9PIID220370802022-12-06 13:14:5741.839-88.011110110220785Clb=-9.5m/s t=-64.1C p=-1.0hPa h=-1.0% 403.410 MHz Type=DFM17 ser=22037080 Radiosonde
KD9IXXD220370802022-12-06 13:14:4441.8388-88.0133424620884Clb=-9.6m/s t=-64.5C h=-1.0% p=-1.0hPa 403.410 MHz Type=DFM17 ser=22037080 Radiosonde
KD9PIID220370802022-12-06 13:14:1741.8385-88.0177588721099Clb=-10.0m/s t=-64.3C p=-1.0hPa h=-1.0% 403.410 MHz Type=DFM17 ser=22037080 Radiosonde
KD9IXXD220370802022-12-06 13:14:0541.8384-88.0201592821208Clb=-10.4m/s t=-64.3C h=-1.0% p=-1.0hPa 403.410 MHz Type=DFM17 ser=22037080 Radiosonde
KD9PIID220370802022-12-06 13:13:3541.8375-88.02595310221448Clb=-9.1m/s t=-63.5C p=-1.0hPa h=-1.0% 403.410 MHz Type=DFM17 ser=22037080 Radiosonde
KD9IXXD220370802022-12-06 13:13:2041.8372-88.02738012021497Clb=-9.2m/s t=-62.7C h=-1.0% p=-1.0hPa 403.410 MHz Type=DFM17 ser=22037080 Radiosonde
KD9PIID220370802022-12-06 13:12:4841.8364-88.0324483521708Clb=-9.9m/s t=-61.3C p=-1.0hPa h=-1.0% 403.410 MHz Type=DFM17 ser=22037080 Radiosonde
KD9IXXD220370802022-12-06 13:12:3541.8362-88.03446310021796Clb=-9.4m/s t=-61.5C h=-1.0% p=-1.0hPa 403.410 MHz Type=DFM17 ser=22037080 Radiosonde
KD9PIID220370802022-12-06 13:12:0641.8358-88.03991204122014Clb=-10.3m/s t=-61.4C p=-1.0hPa h=-1.0% 403.410 MHz Type=DFM17 ser=22037080 Radiosonde
KD9IXXD220370802022-12-06 13:12:0141.8357-88.04228011322114Clb=-10.5m/s t=-60.8C h=-1.0% p=-1.0hPa 403.410 MHz Type=DFM17 ser=22037080 Radiosonde
KD9PIID220370802022-12-06 13:11:5841.8356-88.04691098922366Clb=-10.2m/s t=-61.5C p=-1.0hPa h=-1.0% 403.410 MHz Type=DFM17 ser=22037080 Radiosonde
KD9IXXD220370802022-12-06 13:11:5541.8358-88.0478323522430Clb=-10.0m/s t=-61.7C h=-1.0% p=-1.0hPa 403.410 MHz Type=DFM17 ser=22037080 Radiosonde
KD9PIID220370802022-12-06 13:11:5041.8356-88.0511355222671Clb=-11.1m/s t=-60.9C p=-1.0hPa h=-1.0% 403.410 MHz Type=DFM17 ser=22037080 Radiosonde
KD9IXXD220370802022-12-06 13:11:4841.8356-88.0527444622772Clb=-11.6m/s t=-59.7C h=-1.0% p=-1.0hPa 403.410 MHz Type=DFM17 ser=22037080 Radiosonde
KD9PIID220370802022-12-06 13:11:4441.8347-88.05817110723093Clb=-11.8m/s t=-60.1C p=-1.0hPa h=-1.0% 403.410 MHz Type=DFM17 ser=22037080 Radiosonde
KD9IXXD220370802022-12-06 13:11:3941.8346-88.0586408523127Clb=-11.6m/s t=-60.4C h=-1.0% p=-1.0hPa 403.410 MHz Type=DFM17 ser=22037080 Radiosonde
KD9PIID220370802022-12-06 13:11:3841.8335-88.0632459423399Clb=-11.7m/s t=-61.3C p=-1.0hPa h=-1.0% 403.410 MHz Type=DFM17 ser=22037080 Radiosonde
KD9PIID220370802022-12-06 13:11:3741.8317-88.0703468523761Clb=-12.5m/s t=-60.0C p=-1.0hPa h=-1.0% 403.410 MHz Type=DFM17 ser=22037080 Radiosonde
KD9IXXD220370802022-12-06 13:11:3341.8314-88.07311216323882Clb=-11.6m/s t=-60.7C h=-1.0% p=-1.0hPa 403.410 MHz Type=DFM17 ser=22037080 Radiosonde
KD9PIID220370802022-12-06 13:11:1941.8315-88.07797710624139Clb=-12.4m/s t=-60.1C p=-1.0hPa h=-1.0% 403.410 MHz Type=DFM17 ser=22037080 Radiosonde
KD9IXXD220370802022-12-06 13:11:1141.8317-88.0803653524264Clb=-12.5m/s t=-58.7C h=-1.0% p=-1.0hPa 403.410 MHz Type=DFM17 ser=22037080 Radiosonde
KD9PIID220370802022-12-06 13:10:3941.8319-88.08511268924531Clb=-12.7m/s t=-58.8C p=-1.0hPa h=-1.0% 403.410 MHz Type=DFM17 ser=22037080 Radiosonde
KD9IXXD220370802022-12-06 13:10:2441.8321-88.0868759124659Clb=-12.8m/s t=-59.3C h=-1.0% p=-1.0hPa 403.410 MHz Type=DFM17 ser=22037080 Radiosonde
KD9PIID220370802022-12-06 13:09:4741.8322-88.0907858924967Clb=-13.2m/s t=-61.1C p=-1.0hPa h=-1.0% 403.410 MHz Type=DFM17 ser=22037080 Radiosonde
KD9IXXD220370802022-12-06 13:09:3041.8322-88.09211048925077Clb=-14.3m/s t=-61.4C h=-1.0% p=-1.0hPa 403.410 MHz Type=DFM17 ser=22037080 Radiosonde
KD9PIID220370802022-12-06 13:08:5241.8323-88.0958344125368Clb=-14.1m/s t=-58.8C p=-1.0hPa h=-1.0% 403.410 MHz Type=DFM17 ser=22037080 Radiosonde
KD9IXXD220370802022-12-06 13:08:3641.8321-88.0981672625526Clb=-15.8m/s t=-58.2C h=-1.0% p=-1.0hPa 403.410 MHz Type=DFM17 ser=22037080 Radiosonde
KD9PIID220370802022-12-06 13:07:5441.8323-88.104410312025879Clb=-14.6m/s t=-58.3C p=-1.0hPa h=-1.0% 403.410 MHz Type=DFM17 ser=22037080 Radiosonde
KD9IXXD220370802022-12-06 13:07:3641.8325-88.1058655925968Clb=-14.6m/s t=-58.7C h=-1.0% p=-1.0hPa 403.410 MHz Type=DFM17 ser=22037080 Radiosonde
KD9PIID220370802022-12-06 13:06:5941.8327-88.11396926300Clb=-14.5m/s t=-58.8C p=-1.0hPa h=-1.0% 403.410 MHz Type=DFM17 ser=22037080 Radiosonde
KD9IXXD220370802022-12-06 13:06:4341.8325-88.11171157026440Clb=-16.3m/s t=-58.8C h=-1.0% p=-1.0hPa 403.410 MHz Type=DFM17 ser=22037080 Radiosonde
KD9PIID220370802022-12-06 13:06:1341.8317-88.1179210426885Clb=-16.4m/s t=-57.3C p=-1.0hPa h=-1.0% 403.410 MHz Type=DFM17 ser=22037080 Radiosonde
KD9IXXD220370802022-12-06 13:05:5741.8318-88.1175738526934Clb=-16.0m/s t=-57.1C h=-1.0% p=-1.0hPa 403.410 MHz Type=DFM17 ser=22037080 Radiosonde
KD9PIID220370802022-12-06 13:05:2641.8331-88.123903027332Clb=-16.7m/s t=-56.7C p=-1.0hPa h=-1.0% 403.410 MHz Type=DFM17 ser=22037080 Radiosonde
KD9IXXD220370802022-12-06 13:05:1241.8333-88.1248703727451Clb=-16.1m/s t=-55.8C h=-1.0% p=-1.0hPa 403.410 MHz Type=DFM17 ser=22037080 Radiosonde
KD9PIID220370802022-12-06 13:04:3741.8328-88.13016811327837Clb=-18.0m/s t=-54.8C p=-1.0hPa h=-1.0% 403.410 MHz Type=DFM17 ser=22037080 Radiosonde
KD9IXXD220370802022-12-06 13:04:1841.833-88.133718328017Clb=-17.8m/s t=-54.0C h=-1.0% p=-1.0hPa 403.410 MHz Type=DFM17 ser=22037080 Radiosonde
KD9PIID220370802022-12-06 13:03:3941.8331-88.1403479628538Clb=-18.8m/s t=-53.4C p=-1.0hPa h=-1.0% 403.410 MHz Type=DFM17 ser=22037080 Radiosonde
KD9IXXD220370802022-12-06 13:03:2241.833-88.1411137428574Clb=-19.1m/s t=-53.4C h=-1.0% p=-1.0hPa 403.410 MHz Type=DFM17 ser=22037080 Radiosonde
KD9PIID220370802022-12-06 13:02:5341.8318-88.14789711729034Clb=-19.7m/s t=-54.3C p=-1.0hPa h=-1.0% 403.410 MHz Type=DFM17 ser=22037080 Radiosonde
KD9IXXD220370802022-12-06 13:02:3941.8314-88.150110011129173Clb=-19.5m/s t=-54.3C h=-1.0% p=-1.0hPa 403.410 MHz Type=DFM17 ser=22037080 Radiosonde
KD9PIID220370802022-12-06 13:02:0341.8301-88.15739812429639Clb=-21.3m/s t=-55.7C p=-1.0hPa h=-1.0% 403.410 MHz Type=DFM17 ser=22037080 Radiosonde
KD9IXXD220370802022-12-06 13:01:4941.8297-88.1597476729806Clb=-21.4m/s t=-56.1C h=-1.0% p=-1.0hPa 403.410 MHz Type=DFM17 ser=22037080 Radiosonde
KD9PIID220370802022-12-06 13:01:1541.8281-88.16836914830267Clb=-16.2m/s t=-54.4C p=-1.0hPa h=-1.0% 403.410 MHz Type=DFM17 ser=22037080 Radiosonde
KD9IXXD220370802022-12-06 13:00:5641.8279-88.17237412430475Clb=-25.3m/s t=-53.9C h=-1.0% p=-1.0hPa 403.410 MHz Type=DFM17 ser=22037080 Radiosonde
KD9IXXD220370802022-12-06 12:59:5341.8263-88.18759613931284Clb=-26.1m/s t=-54.4C h=-1.0% p=-1.0hPa 403.410 MHz Type=DFM17 ser=22037080 Radiosonde
KD9PIID220370802022-12-06 12:59:0741.8268-88.19848412231954Clb=-27.2m/s t=-54.2C p=-1.0hPa h=-1.0% 403.410 MHz Type=DFM17 ser=22037080 Radiosonde
KD9IXXD220370802022-12-06 12:58:5041.8267-88.20179112832160Clb=-28.9m/s t=-53.9C h=-1.0% p=-1.0hPa 403.410 MHz Type=DFM17 ser=22037080 Radiosonde
KD9PIID220370802022-12-06 12:58:0441.8269-88.21338620232765Clb=-7.7m/s t=-51.6C p=-1.0hPa h=-1.0% 403.410 MHz Type=DFM17 ser=22037080 Radiosonde
KD9IXXD220370802022-12-06 12:57:4441.8267-88.21788615032718Clb=6.2m/s t=-51.8C h=-1.0% p=-1.0hPa 403.410 MHz Type=DFM17 ser=22037080 Radiosonde
KD9PIID220370802022-12-06 12:57:0341.827-88.23219315632525Clb=7.3m/s t=-52.6C p=-1.0hPa h=-1.0% 403.410 MHz Type=DFM17 ser=22037080 Radiosonde
KD9IXXD220370802022-12-06 12:56:4641.8271-88.2349413532495Clb=6.7m/s t=-52.6C h=-1.0% p=-1.0hPa 403.410 MHz Type=DFM17 ser=22037080 Radiosonde
KD9PIID220370802022-12-06 12:56:1041.8274-88.24439018332340Clb=9.8m/s t=-53.2C p=-1.0hPa h=-1.0% 403.410 MHz Type=DFM17 ser=22037080 Radiosonde
KD9IXXD220370802022-12-06 12:55:5541.8277-88.24979414832264Clb=6.6m/s t=-53.4C h=-1.0% p=-1.0hPa 403.410 MHz Type=DFM17 ser=22037080 Radiosonde
KD9IXXD220370802022-12-06 12:54:5341.8285-88.26398612032057Clb=7.3m/s t=-53.4C h=-1.0% p=-1.0hPa 403.410 MHz Type=DFM17 ser=22037080 Radiosonde
KD9PIID220370802022-12-06 12:54:1841.8284-88.27638513331898Clb=6.4m/s t=-53.6C p=-1.0hPa h=-1.0% 403.410 MHz Type=DFM17 ser=22037080 Radiosonde
KD9IXXD220370802022-12-06 12:54:0341.8282-88.27848717831867Clb=12.0m/s t=-53.7C h=-1.0% p=-1.0hPa 403.410 MHz Type=DFM17 ser=22037080 Radiosonde
KD9PIID220370802022-12-06 12:53:2341.8281-88.28999115431717Clb=7.9m/s t=-54.1C p=-1.0hPa h=-1.0% 403.410 MHz Type=DFM17 ser=22037080 Radiosonde
KD9IXXD220370802022-12-06 12:53:0741.8282-88.29289111531683Clb=6.0m/s t=-54.0C h=-1.0% p=-1.0hPa 403.410 MHz Type=DFM17 ser=22037080 Radiosonde
KD9PIID220370802022-12-06 12:52:2441.8287-88.30348814631558Clb=5.8m/s t=-53.9C p=-1.0hPa h=-1.0% 403.410 MHz Type=DFM17 ser=22037080 Radiosonde
KD9IXXD220370802022-12-06 12:52:0041.8289-88.30729013931516Clb=6.4m/s t=-53.8C h=-1.0% p=-1.0hPa 403.410 MHz Type=DFM17 ser=22037080 Radiosonde
KD9PIID220370802022-12-06 12:51:2041.8299-88.31757913031388Clb=3.0m/s t=-54.4C p=-1.0hPa h=-1.0% 403.410 MHz Type=DFM17 ser=22037080 Radiosonde
KD9IXXD220370802022-12-06 12:51:0341.8304-88.322511614131319Clb=12.6m/s t=-54.1C h=-1.0% p=-1.0hPa 403.410 MHz Type=DFM17 ser=22037080 Radiosonde
KD9PIID220370802022-12-06 12:50:2041.831-88.333210610631182Clb=11.4m/s t=-53.9C p=-1.0hPa h=-1.0% 403.410 MHz Type=DFM17 ser=22037080 Radiosonde
KD9IXXD220370802022-12-06 12:50:0041.831-88.33618815231145Clb=4.4m/s t=-53.7C h=-1.0% p=-1.0hPa 403.410 MHz Type=DFM17 ser=22037080 Radiosonde
KD9IXXD220370802022-12-06 12:48:5541.8302-88.35046813530938Clb=3.7m/s t=-53.0C h=-1.0% p=-1.0hPa 403.410 MHz Type=DFM17 ser=22037080 Radiosonde
KD9PIID220370802022-12-06 12:48:1141.8283-88.36378015930748Clb=9.3m/s t=-53.6C p=-1.0hPa h=-1.0% 403.410 MHz Type=DFM17 ser=22037080 Radiosonde
KD9IXXD220370802022-12-06 12:47:5041.8282-88.36588014830719Clb=7.2m/s t=-53.7C h=-1.0% p=-1.0hPa 403.410 MHz Type=DFM17 ser=22037080 Radiosonde
KD9PIID220370802022-12-06 12:47:0641.8265-88.37667313330560Clb=5.9m/s t=-53.4C p=-1.0hPa h=-1.0% 403.410 MHz Type=DFM17 ser=22037080 Radiosonde
KD9IXXD220370802022-12-06 12:46:4941.8259-88.38097117630495Clb=3.9m/s t=-53.4C h=-1.0% p=-1.0hPa 403.410 MHz Type=DFM17 ser=22037080 Radiosonde
KD9PIID220370802022-12-06 12:46:1041.8254-88.39328413730295Clb=15.9m/s t=-54.2C p=-1.0hPa h=-1.0% 403.410 MHz Type=DFM17 ser=22037080 Radiosonde
KD9IXXD220370802022-12-06 12:45:5141.8253-88.39498914830274Clb=5.0m/s t=-54.3C h=-1.0% p=-1.0hPa 403.410 MHz Type=DFM17 ser=22037080 Radiosonde
KD9IXXD220370802022-12-06 12:44:4641.8243-88.40847916730058Clb=7.9m/s t=-55.5C h=-1.0% p=-1.0hPa 403.410 MHz Type=DFM17 ser=22037080 Radiosonde
KD9PIID220370802022-12-06 12:44:0041.8226-88.41917613729904Clb=8.2m/s t=-56.2C p=-1.0hPa h=-1.0% 403.410 MHz Type=DFM17 ser=22037080 Radiosonde
KD9IXXD220370802022-12-06 12:43:5941.8221-88.42099910629868Clb=11.2m/s t=-56.1C h=-1.0% p=-1.0hPa 403.410 MHz Type=DFM17 ser=22037080 Radiosonde
KD9PIID220370802022-12-06 12:43:5241.8205-88.42858612629735Clb=14.7m/s t=-56.6C p=-1.0hPa h=-1.0% 403.410 MHz Type=DFM17 ser=22037080 Radiosonde
KD9IXXD220370802022-12-06 12:43:5141.8201-88.4328911729669Clb=0.3m/s t=-56.5C h=-1.0% p=-1.0hPa 403.410 MHz Type=DFM17 ser=22037080 Radiosonde
KD9PIID220370802022-12-06 12:43:4941.8195-88.4384639829543Clb=-2.5m/s t=-56.3C p=-1.0hPa h=-1.0% 403.410 MHz Type=DFM17 ser=22037080 Radiosonde
KD9PIID220370802022-12-06 12:43:4341.8184-88.44949210729342Clb=4.4m/s t=-273.0C p=-1.0hPa h=-1.0% 403.410 MHz Type=DFM17 ser=22037080 Radiosonde
KD9IXXD220370802022-12-06 12:43:3741.818-88.4521829129292Clb=9.9m/s t=-55.8C h=-1.0% p=-1.0hPa 403.410 MHz Type=DFM17 ser=22037080 Radiosonde
KD9PIID220370802022-12-06 12:43:2841.8165-88.4602737029133Clb=-7.0m/s t=-55.8C p=-1.0hPa h=-1.0% 403.410 MHz Type=DFM17 ser=22037080 Radiosonde
KD9IXXD220370802022-12-06 12:43:2241.8161-88.4625555429082Clb=12.9m/s t=-55.8C h=-1.0% p=-1.0hPa 403.410 MHz Type=DFM17 ser=22037080 Radiosonde
KD9PIID220370802022-12-06 12:43:0241.8152-88.46938710228933Clb=3.1m/s t=-56.1C p=-1.0hPa h=-1.0% 403.410 MHz Type=DFM17 ser=22037080 Radiosonde
KD9IXXD220370802022-12-06 12:42:4841.8149-88.4716929428872Clb=7.8m/s t=-56.5C h=-1.0% p=-1.0hPa 403.410 MHz Type=DFM17 ser=22037080 Radiosonde
KD9PIID220370802022-12-06 12:42:0941.8143-88.4777943728711Clb=12.2m/s t=-56.1C p=-1.0hPa h=-1.0% 403.410 MHz Type=DFM17 ser=22037080 Radiosonde
KD9IXXD220370802022-12-06 12:42:0041.8139-88.48068313128625Clb=10.6m/s t=-55.7C h=-1.0% p=-1.0hPa 403.410 MHz Type=DFM17 ser=22037080 Radiosonde
KD9PIID220370802022-12-06 12:41:5841.8135-88.486807428479Clb=13.5m/s t=-55.8C p=-1.0hPa h=-1.0% 403.410 MHz Type=DFM17 ser=22037080 Radiosonde
KD9IXXD220370802022-12-06 12:41:5641.8134-88.48867910228415Clb=-2.1m/s t=-55.6C h=-1.0% p=-1.0hPa 403.410 MHz Type=DFM17 ser=22037080 Radiosonde
KD9PIID220370802022-12-06 12:41:5341.8139-88.494958128264Clb=15.1m/s t=-55.5C p=-1.0hPa h=-1.0% 403.410 MHz Type=DFM17 ser=22037080 Radiosonde
KD9PIID220370802022-12-06 12:41:5141.8154-88.50271116728072Clb=4.3m/s t=-56.9C p=-1.0hPa h=-1.0% 403.410 MHz Type=DFM17 ser=22037080 Radiosonde
KD9IXXD220370802022-12-06 12:41:5041.816-88.50551109628026Clb=1.3m/s t=-57.5C h=-1.0% p=-1.0hPa 403.410 MHz Type=DFM17 ser=22037080 Radiosonde
KD9PIID220370802022-12-06 12:41:4941.8163-88.51211077627894Clb=9.4m/s t=-57.7C p=-1.0hPa h=-1.0% 403.410 MHz Type=DFM17 ser=22037080 Radiosonde
KD9IXXD220370802022-12-06 12:41:4841.8164-88.51441215727835Clb=-2.7m/s t=-57.7C h=-1.0% p=-1.0hPa 403.410 MHz Type=DFM17 ser=22037080 Radiosonde
KD9PIID220370802022-12-06 12:41:4641.8156-88.5193897627720Clb=9.7m/s t=-57.7C p=-1.0hPa h=-1.0% 403.410 MHz Type=DFM17 ser=22037080 Radiosonde
KD9PIID220370802022-12-06 12:41:3541.8145-88.5282836527495Clb=9.1m/s t=-58.9C p=-1.0hPa h=-1.0% 403.410 MHz Type=DFM17 ser=22037080 Radiosonde
KD9IXXD220370802022-12-06 12:41:2441.8145-88.5284556727486Clb=9.2m/s t=-58.9C h=-1.0% p=-1.0hPa 403.410 MHz Type=DFM17 ser=22037080 Radiosonde
KD9PIID220370802022-12-06 12:41:0141.8148-88.5343885727354Clb=4.5m/s t=-59.3C p=-1.0hPa h=-1.0% 403.410 MHz Type=DFM17 ser=22037080 Radiosonde
KD9IXXD220370802022-12-06 12:40:4441.815-88.53647710427298Clb=9.7m/s t=-59.2C h=-1.0% p=-1.0hPa 403.410 MHz Type=DFM17 ser=22037080 Radiosonde
KD9PIID220370802022-12-06 12:40:0141.8159-88.54210910627172Clb=2.9m/s t=-58.7C p=-1.0hPa h=-1.0% 403.410 MHz Type=DFM17 ser=22037080 Radiosonde
KD9IXXD220370802022-12-06 12:39:4341.8165-88.54441055227114Clb=13.5m/s t=-58.7C h=-1.0% p=-1.0hPa 403.410 MHz Type=DFM17 ser=22037080 Radiosonde
KD9PIID220370802022-12-06 12:38:5441.8172-88.54981019126978Clb=2.9m/s t=-58.8C p=-1.0hPa h=-1.0% 403.410 MHz Type=DFM17 ser=22037080 Radiosonde
KD9IXXD220370802022-12-06 12:38:3441.8175-88.5521296726916Clb=6.0m/s t=-58.7C h=-1.0% p=-1.0hPa 403.410 MHz Type=DFM17 ser=22037080 Radiosonde
KD9PIID220370802022-12-06 12:37:4341.8176-88.5564797626794Clb=3.5m/s t=-59.3C p=-1.0hPa h=-1.0% 403.410 MHz Type=DFM17 ser=22037080 Radiosonde
KD9IXXD220370802022-12-06 12:37:2241.8175-88.5582896126743Clb=11.7m/s t=-59.7C h=-1.0% p=-1.0hPa 403.410 MHz Type=DFM17 ser=22037080 Radiosonde
KD9PIID220370802022-12-06 12:36:3241.8169-88.5628448926607Clb=-4.2m/s t=-59.7C p=-1.0hPa h=-1.0% 403.410 MHz Type=DFM17 ser=22037080 Radiosonde
KD9IXXD220370802022-12-06 12:36:1241.8163-88.5643394126557Clb=7.4m/s t=-60.3C h=-1.0% p=-1.0hPa 403.410 MHz Type=DFM17 ser=22037080 Radiosonde
KD9PIID220370802022-12-06 12:35:2141.8149-88.5682906526434Clb=3.8m/s t=-60.1C p=-1.0hPa h=-1.0% 403.410 MHz Type=DFM17 ser=22037080 Radiosonde
KD9IXXD220370802022-12-06 12:34:5341.8145-88.5697578326388Clb=8.6m/s t=-60.0C h=-1.0% p=-1.0hPa 403.410 MHz Type=DFM17 ser=22037080 Radiosonde
KD9PIID220370802022-12-06 12:33:5641.8135-88.5732393926274Clb=9.8m/s t=-60.3C p=-1.0hPa h=-1.0% 403.410 MHz Type=DFM17 ser=22037080 Radiosonde
KD9IXXD220370802022-12-06 12:33:3541.8133-88.5757810726208Clb=9.8m/s t=-60.4C h=-1.0% p=-1.0hPa 403.410 MHz Type=DFM17 ser=22037080 Radiosonde
KD9IXXD220370802022-12-06 12:32:4741.8092-88.7063598122673Clb=4.0m/s t=-62.4C h=-1.0% p=-1.0hPa 403.410 MHz Type=DFM17 ser=22037080 Radiosonde
KD9PIID220370802022-12-06 12:31:5241.809-88.70961053922558Clb=5.9m/s t=-62.7C p=-1.0hPa h=-1.0% 403.410 MHz Type=DFM17 ser=22037080 Radiosonde
KD9IXXD220370802022-12-06 12:31:2941.8089-88.7108735722501Clb=1.8m/s t=-62.5C h=-1.0% p=-1.0hPa 403.410 MHz Type=DFM17 ser=22037080 Radiosonde
KD9PIID220370802022-12-06 12:30:3841.8089-88.71351313122384Clb=8.5m/s t=-62.2C p=-1.0hPa h=-1.0% 403.410 MHz Type=DFM17 ser=22037080 Radiosonde
KD9IXXD220370802022-12-06 12:30:1841.8088-88.7147666922327Clb=10.0m/s t=-61.8C h=-1.0% p=-1.0hPa 403.410 MHz Type=DFM17 ser=22037080 Radiosonde
KD9PIID220370802022-12-06 12:29:2541.8084-88.7183906722200Clb=6.5m/s t=-61.1C p=-1.0hPa h=-1.0% 403.410 MHz Type=DFM17 ser=22037080 Radiosonde
KD9IXXD220370802022-12-06 12:29:0341.8084-88.7199606722150Clb=9.0m/s t=-60.9C h=-1.0% p=-1.0hPa 403.410 MHz Type=DFM17 ser=22037080 Radiosonde
KD9PIID220370802022-12-06 12:28:1541.8078-88.7244756922025Clb=9.4m/s t=-60.9C p=-1.0hPa h=-1.0% 403.410 MHz Type=DFM17 ser=22037080 Radiosonde
KD9IXXD220370802022-12-06 12:27:5441.8074-88.7267599321961Clb=9.0m/s t=-61.4C h=-1.0% p=-1.0hPa 403.410 MHz Type=DFM17 ser=22037080 Radiosonde
KD9PIID220370802022-12-06 12:27:0741.8064-88.7322977421831Clb=4.0m/s t=-61.8C p=-1.0hPa h=-1.0% 403.410 MHz Type=DFM17 ser=22037080 Radiosonde
KD9IXXD220370802022-12-06 12:26:4941.8061-88.734787021795Clb=8.0m/s t=-61.9C h=-1.0% p=-1.0hPa 403.410 MHz Type=DFM17 ser=22037080 Radiosonde
KD9PIID220370802022-12-06 12:26:0241.8051-88.739786121661Clb=6.0m/s t=-61.6C p=-1.0hPa h=-1.0% 403.410 MHz Type=DFM17 ser=22037080 Radiosonde
KD9IXXD220370802022-12-06 12:25:4241.8047-88.7411765921609Clb=7.2m/s t=-61.4C h=-1.0% p=-1.0hPa 403.410 MHz Type=DFM17 ser=22037080 Radiosonde
KD9PIID220370802022-12-06 12:24:4641.8033-88.7462528121477Clb=9.0m/s t=-62.2C p=-1.0hPa h=-1.0% 403.410 MHz Type=DFM17 ser=22037080 Radiosonde
KD9IXXD220370802022-12-06 12:24:2441.8028-88.7481596321433Clb=3.1m/s t=-63.1C h=-1.0% p=-1.0hPa 403.410 MHz Type=DFM17 ser=22037080 Radiosonde
KD9PIID220370802022-12-06 12:23:3441.8014-88.75377710421304Clb=2.6m/s t=-64.6C p=-1.0hPa h=-1.0% 403.410 MHz Type=DFM17 ser=22037080 Radiosonde
KD9IXXD220370802022-12-06 12:23:1441.801-88.7558835021250Clb=4.0m/s t=-64.4C h=-1.0% p=-1.0hPa 403.410 MHz Type=DFM17 ser=22037080 Radiosonde
KD9PIID220370802022-12-06 12:22:1841.8003-88.761644421122Clb=9.5m/s t=-64.1C p=-1.0hPa h=-1.0% 403.410 MHz Type=DFM17 ser=22037080 Radiosonde
KD9IXXD220370802022-12-06 12:21:5641.8-88.7632889821060Clb=4.1m/s t=-64.1C h=-1.0% p=-1.0hPa 403.410 MHz Type=DFM17 ser=22037080 Radiosonde
KD9PIID220370802022-12-06 12:21:0241.7996-88.7677966120942Clb=5.9m/s t=-63.8C p=-1.0hPa h=-1.0% 403.410 MHz Type=DFM17 ser=22037080 Radiosonde
KD9IXXD220370802022-12-06 12:20:3741.7995-88.7698816120891Clb=6.7m/s t=-64.0C h=-1.0% p=-1.0hPa 403.410 MHz Type=DFM17 ser=22037080 Radiosonde
KD9PIID220370802022-12-06 12:19:1341.7995-88.7748818120773Clb=7.6m/s t=-64.3C p=-1.0hPa h=-1.0% 403.410 MHz Type=DFM17 ser=22037080 Radiosonde
KD9IXXD220370802022-12-06 12:18:4841.7997-88.7771096520722Clb=4.2m/s t=-63.9C h=-1.0% p=-1.0hPa 403.410 MHz Type=DFM17 ser=22037080 Radiosonde
KD9PIID220370802022-12-06 12:17:5441.8-88.7827935620594Clb=8.5m/s t=-63.4C p=-1.0hPa h=-1.0% 403.410 MHz Type=DFM17 ser=22037080 Radiosonde
KD9IXXD220370802022-12-06 12:17:3441.8-88.7846877420545Clb=6.1m/s t=-63.3C h=-1.0% p=-1.0hPa 403.410 MHz Type=DFM17 ser=22037080 Radiosonde
KD9PIID220370802022-12-06 12:16:4741.7995-88.7902808020427Clb=6.4m/s t=-62.5C p=-1.0hPa h=-1.0% 403.410 MHz Type=DFM17 ser=22037080 Radiosonde
KD9IXXD220370802022-12-06 12:16:2841.7994-88.7927998720377Clb=2.8m/s t=-62.1C h=-1.0% p=-1.0hPa 403.410 MHz Type=DFM17 ser=22037080 Radiosonde
KD9PIID220370802022-12-06 12:15:5941.7991-88.7998808120228Clb=8.4m/s t=-61.9C p=-1.0hPa h=-1.0% 403.410 MHz Type=DFM17 ser=22037080 Radiosonde
KD9PIID220370802022-12-06 12:15:5641.7993-88.80731127820069Clb=4.7m/s t=-64.7C p=-1.0hPa h=-1.0% 403.410 MHz Type=DFM17 ser=22037080 Radiosonde
KD9IXXD220370802022-12-06 12:15:5541.7995-88.8094888520027Clb=7.1m/s t=-64.8C h=-1.0% p=-1.0hPa 403.410 MHz Type=DFM17 ser=22037080 Radiosonde
KD9PIID220370802022-12-06 12:15:5441.8001-88.8152958019911Clb=6.4m/s t=-65.4C p=-1.0hPa h=-1.0% 403.410 MHz Type=DFM17 ser=22037080 Radiosonde
KD9IXXD220370802022-12-06 12:15:5241.8003-88.8177897619858Clb=7.5m/s t=-65.4C h=-1.0% p=-1.0hPa 403.410 MHz Type=DFM17 ser=22037080 Radiosonde
KD9PIID220370802022-12-06 12:15:5041.8001-88.8232789319733Clb=4.4m/s t=-65.7C p=-1.0hPa h=-1.0% 403.410 MHz Type=DFM17 ser=22037080 Radiosonde
KD9IXXD220370802022-12-06 12:15:4941.7999-88.8252916319692Clb=6.7m/s t=-65.5C h=-1.0% p=-1.0hPa 403.410 MHz Type=DFM17 ser=22037080 Radiosonde
KD9PIID220370802022-12-06 12:15:4741.7991-88.8306675719568Clb=5.0m/s t=-64.8C p=-1.0hPa h=-1.0% 403.410 MHz Type=DFM17 ser=22037080 Radiosonde
KD9IXXD220370802022-12-06 12:15:4641.7987-88.8333744819499Clb=7.0m/s t=-64.8C h=-1.0% p=-1.0hPa 403.410 MHz Type=DFM17 ser=22037080 Radiosonde
KD9PIID220370802022-12-06 12:15:3541.7979-88.838636119385Clb=2.3m/s t=-64.5C p=-1.0hPa h=-1.0% 403.410 MHz Type=DFM17 ser=22037080 Radiosonde
KD9IXXD220370802022-12-06 12:15:2741.7976-88.8406857619330Clb=7.7m/s t=-64.1C h=-1.0% p=-1.0hPa 403.410 MHz Type=DFM17 ser=22037080 Radiosonde
KD9PIID220370802022-12-06 12:15:0941.7967-88.8459847619218Clb=6.7m/s t=-63.2C p=-1.0hPa h=-1.0% 403.410 MHz Type=DFM17 ser=22037080 Radiosonde
KD9IXXD220370802022-12-06 12:15:0041.7963-88.8487839319157Clb=4.8m/s t=-62.8C h=-1.0% p=-1.0hPa 403.410 MHz Type=DFM17 ser=22037080 Radiosonde
KD9PIID220370802022-12-06 12:14:1941.7951-88.8549779619031Clb=3.7m/s t=-63.6C p=-1.0hPa h=-1.0% 403.410 MHz Type=DFM17 ser=22037080 Radiosonde
KD9IXXD220370802022-12-06 12:13:5941.7939-88.8584768718972Clb=8.8m/s t=-63.9C h=-1.0% p=-1.0hPa 403.410 MHz Type=DFM17 ser=22037080 Radiosonde
KD9PIID220370802022-12-06 12:13:1441.7919-88.8644548518856Clb=6.5m/s t=-63.3C p=-1.0hPa h=-1.0% 403.410 MHz Type=DFM17 ser=22037080 Radiosonde
KD9IXXD220370802022-12-06 12:12:5041.7912-88.8668827618809Clb=0.8m/s t=-63.0C h=-1.0% p=-1.0hPa 403.410 MHz Type=DFM17 ser=22037080 Radiosonde
KD9PIID220370802022-12-06 12:12:0141.7894-88.8724756518677Clb=6.6m/s t=-62.1C p=-1.0hPa h=-1.0% 403.410 MHz Type=DFM17 ser=22037080 Radiosonde
KD9IXXD220370802022-12-06 12:11:3941.7888-88.8754717618608Clb=8.5m/s t=-62.0C h=-1.0% p=-1.0hPa 403.410 MHz Type=DFM17 ser=22037080 Radiosonde
KD9PIID220370802022-12-06 12:10:5041.7881-88.8804777218505Clb=5.7m/s t=-61.6C p=-1.0hPa h=-1.0% 403.410 MHz Type=DFM17 ser=22037080 Radiosonde
KD9IXXD220370802022-12-06 12:10:0741.7644-89.17449217214872Clb=7.3m/s t=-63.6C h=-1.0% p=-1.0hPa 403.410 MHz Type=DFM17 ser=22037080 Radiosonde
KD9PIID220370802022-12-06 12:09:0541.7641-89.18727918514776Clb=2.6m/s t=-63.6C p=-1.0hPa h=-1.0% 403.410 MHz Type=DFM17 ser=22037080 Radiosonde
KD9IXXD220370802022-12-06 12:08:4441.7639-89.19288719314737Clb=5.0m/s t=-63.5C h=-1.0% p=-1.0hPa 403.410 MHz Type=DFM17 ser=22037080 Radiosonde
KD9PIID220370802022-12-06 12:07:4541.7633-89.20657819814639Clb=5.1m/s t=-63.0C p=-1.0hPa h=-1.0% 403.410 MHz Type=DFM17 ser=22037080 Radiosonde
KD9IXXD220370802022-12-06 12:07:1941.763-89.2128917414600Clb=2.6m/s t=-62.8C h=-1.0% p=-1.0hPa 403.410 MHz Type=DFM17 ser=22037080 Radiosonde
KD9PIID220370802022-12-06 12:06:3541.7623-89.22618418314483Clb=6.0m/s t=-61.9C p=-1.0hPa h=-1.0% 403.410 MHz Type=DFM17 ser=22037080 Radiosonde
KD9IXXD220370802022-12-06 12:06:1241.7621-89.2319017614444Clb=5.7m/s t=-61.6C h=-1.0% p=-1.0hPa 403.410 MHz Type=DFM17 ser=22037080 Radiosonde
KD9PIID220370802022-12-06 12:05:1841.7615-89.24418717614340Clb=6.5m/s t=-60.8C p=-1.0hPa h=-1.0% 403.410 MHz Type=DFM17 ser=22037080 Radiosonde
KD9IXXD220370802022-12-06 12:04:5441.7611-89.25059116314282Clb=7.4m/s t=-60.6C h=-1.0% p=-1.0hPa 403.410 MHz Type=DFM17 ser=22037080 Radiosonde
KD9PIID220370802022-12-06 12:03:5941.7609-89.26289517414182Clb=2.9m/s t=-60.2C p=-1.0hPa h=-1.0% 403.410 MHz Type=DFM17 ser=22037080 Radiosonde
KD9IXXD220370802022-12-06 12:03:3741.7608-89.26828817814141Clb=5.3m/s t=-60.1C h=-1.0% p=-1.0hPa 403.410 MHz Type=DFM17 ser=22037080 Radiosonde
KD9PIID220370802022-12-06 12:02:4841.7609-89.2818819614040Clb=4.2m/s t=-60.2C p=-1.0hPa h=-1.0% 403.410 MHz Type=DFM17 ser=22037080 Radiosonde
KD9IXXD220370802022-12-06 12:02:2741.761-89.28738921513988Clb=5.0m/s t=-60.4C h=-1.0% p=-1.0hPa 403.410 MHz Type=DFM17 ser=22037080 Radiosonde
KD9PIID220370802022-12-06 12:01:4141.7608-89.30288920713871Clb=7.0m/s t=-59.9C p=-1.0hPa h=-1.0% 403.410 MHz Type=DFM17 ser=22037080 Radiosonde
KD9IXXD220370802022-12-06 12:01:2141.7607-89.30828620713827Clb=6.2m/s t=-59.6C h=-1.0% p=-1.0hPa 403.410 MHz Type=DFM17 ser=22037080 Radiosonde
KD9PIID220370802022-12-06 12:00:3741.7598-89.32528420913703Clb=6.1m/s t=-59.4C p=-1.0hPa h=-1.0% 403.410 MHz Type=DFM17 ser=22037080 Radiosonde
KD9IXXD220370802022-12-06 12:00:1341.7596-89.33049022013667Clb=5.7m/s t=-59.4C h=-1.0% p=-1.0hPa 403.410 MHz Type=DFM17 ser=22037080 Radiosonde
KD9PIID220370802022-12-06 11:59:1441.7584-89.34698721713558Clb=3.7m/s t=-58.9C p=-1.0hPa h=-1.0% 403.410 MHz Type=DFM17 ser=22037080 Radiosonde
KD9IXXD220370802022-12-06 11:58:4941.7579-89.35438522213511Clb=3.6m/s t=-58.8C h=-1.0% p=-1.0hPa 403.410 MHz Type=DFM17 ser=22037080 Radiosonde
KD9PIID220370802022-12-06 11:57:4941.7567-89.36968421113411Clb=5.0m/s t=-58.5C p=-1.0hPa h=-1.0% 403.410 MHz Type=DFM17 ser=22037080 Radiosonde
KD9IXXD220370802022-12-06 11:57:2641.7562-89.3769020713372Clb=1.6m/s t=-58.7C h=-1.0% p=-1.0hPa 403.410 MHz Type=DFM17 ser=22037080 Radiosonde
KD9PIID220370802022-12-06 11:56:4141.7549-89.39288321913268Clb=3.5m/s t=-59.0C p=-1.0hPa h=-1.0% 403.410 MHz Type=DFM17 ser=22037080 Radiosonde
KD9IXXD220370802022-12-06 11:56:2241.7546-89.39768719113239Clb=2.1m/s t=-58.9C h=-1.0% p=-1.0hPa 403.410 MHz Type=DFM17 ser=22037080 Radiosonde
KD9PIID220370802022-12-06 11:55:3741.7537-89.41688623213125Clb=6.2m/s t=-58.8C p=-1.0hPa h=-1.0% 403.410 MHz Type=DFM17 ser=22037080 Radiosonde
KD9IXXD220370802022-12-06 11:55:1541.7536-89.41978920913109Clb=3.3m/s t=-58.7C h=-1.0% p=-1.0hPa 403.410 MHz Type=DFM17 ser=22037080 Radiosonde
KD9PIID220370802022-12-06 11:54:2041.7529-89.4378722413012Clb=4.9m/s t=-58.0C p=-1.0hPa h=-1.0% 403.410 MHz Type=DFM17 ser=22037080 Radiosonde
KD9IXXD220370802022-12-06 11:54:0041.7527-89.44318723012976Clb=3.5m/s t=-57.8C h=-1.0% p=-1.0hPa 403.410 MHz Type=DFM17 ser=22037080 Radiosonde
KD9IXXD220370802022-12-06 11:52:4141.7515-89.46848523212842Clb=5.5m/s t=-58.1C h=-1.0% p=-1.0hPa 403.410 MHz Type=DFM17 ser=22037080 Radiosonde
KD9IXXD220370802022-12-06 11:51:4641.7496-89.49258124312703Clb=5.7m/s t=-58.8C h=-1.0% p=-1.0hPa 403.410 MHz Type=DFM17 ser=22037080 Radiosonde
KD9IXXD220370802022-12-06 11:51:2041.7472-89.51577820212548Clb=4.4m/s t=-59.1C h=-1.0% p=-1.0hPa 403.410 MHz Type=DFM17 ser=22037080 Radiosonde
KD9IXXD220370802022-12-06 11:50:4741.7455-89.53778120712402Clb=5.5m/s t=-60.0C h=-1.0% p=-1.0hPa 403.410 MHz Type=DFM17 ser=22037080 Radiosonde
KD9IXXD220370802022-12-06 11:50:1841.7433-89.56038623012258Clb=5.8m/s t=-59.9C h=-1.0% p=-1.0hPa 403.410 MHz Type=DFM17 ser=22037080 Radiosonde
KD9IXXD220370802022-12-06 11:49:5941.7413-89.58427822812112Clb=2.3m/s t=-60.5C h=-1.0% p=-1.0hPa 403.410 MHz Type=DFM17 ser=22037080 Radiosonde
KD9IXXD220370802022-12-06 11:49:5041.7394-89.6068022411978Clb=3.6m/s t=-59.5C h=-1.0% p=-1.0hPa 403.410 MHz Type=DFM17 ser=22037080 Radiosonde
KD9IXXD220370802022-12-06 11:49:3041.7376-89.62918520711835Clb=5.5m/s t=-59.6C h=-1.0% p=-1.0hPa 403.410 MHz Type=DFM17 ser=22037080 Radiosonde
KD9IXXD220370802022-12-06 11:48:5941.7356-89.65218219811697Clb=1.9m/s t=-59.3C h=-1.0% p=-1.0hPa 403.410 MHz Type=DFM17 ser=22037080 Radiosonde
KD9IXXD220370802022-12-06 11:48:5041.7335-89.67798621911537Clb=5.9m/s t=-58.4C h=-1.0% p=-1.0hPa 403.410 MHz Type=DFM17 ser=22037080 Radiosonde
KD9IXXD220370802022-12-06 11:48:4841.7326-89.69838823311413Clb=4.7m/s t=-58.1C h=-1.0% p=-1.0hPa 403.410 MHz Type=DFM17 ser=22037080 Radiosonde
KD9IXXD220370802022-12-06 11:48:4441.7315-89.72348721911258Clb=2.9m/s t=-57.8C h=-1.0% p=-1.0hPa 403.410 MHz Type=DFM17 ser=22037080 Radiosonde
KD9IXXD220370802022-12-06 11:48:4341.7301-89.74758523211122Clb=5.5m/s t=-56.8C h=-1.0% p=-1.0hPa 403.410 MHz Type=DFM17 ser=22037080 Radiosonde
KD9IXXD220370802022-12-06 11:48:4041.7285-89.77048723510992Clb=2.7m/s t=-56.1C h=-1.0% p=-1.0hPa 403.410 MHz Type=DFM17 ser=22037080 Radiosonde
KD9IXXD220370802022-12-06 11:48:3841.7259-89.79928324110837Clb=3.2m/s t=-55.0C h=-1.0% p=-1.0hPa 403.410 MHz Type=DFM17 ser=22037080 Radiosonde
KD9IXXD220370802022-12-06 11:48:3541.7239-89.82078423710714Clb=5.2m/s t=-54.4C h=-1.0% p=-1.0hPa 403.410 MHz Type=DFM17 ser=22037080 Radiosonde
KD9IXXD220370802022-12-06 11:47:5041.7218-89.84458224610583Clb=3.4m/s t=-53.7C h=-1.0% p=-1.0hPa 403.410 MHz Type=DFM17 ser=22037080 Radiosonde
KD9IXXD220370802022-12-06 11:46:4441.7192-89.86918124310442Clb=5.8m/s t=-52.6C h=-1.0% p=-1.0hPa 403.410 MHz Type=DFM17 ser=22037080 Radiosonde
KD9IXXD220370802022-12-06 11:45:4641.716-89.89558023310296Clb=5.4m/s t=-51.8C h=-1.0% p=-1.0hPa 403.410 MHz Type=DFM17 ser=22037080 Radiosonde
KD9IXXD220370802022-12-06 11:44:4641.7132-89.91978225010167Clb=4.5m/s t=-73.1C h=-1.0% p=-1.0hPa 403.410 MHz Type=DFM17 ser=22037080 Radiosonde
KD9IXXD220370802022-12-06 11:43:4541.7102-89.94398223910036Clb=4.1m/s t=-51.4C h=-1.0% p=-1.0hPa 403.410 MHz Type=DFM17 ser=22037080 Radiosonde
KD9IXXD220370802022-12-06 11:42:4541.7072-89.9681852289902Clb=2.6m/s t=-51.3C h=-1.0% p=-1.0hPa 403.410 MHz Type=DFM17 ser=22037080 Radiosonde